createdAt,value
2018-06-15T00:04:08.648Z,93.80
2018-06-15T00:09:11.829Z,93.60
2018-06-15T00:19:17.869Z,93.70
2018-06-15T00:24:21.005Z,93.90
2018-06-15T00:29:24.217Z,93.90
2018-06-15T00:34:27.426Z,94.00
2018-06-15T00:39:30.591Z,94.70
2018-06-15T00:44:33.725Z,94.40
2018-06-15T00:49:36.932Z,94.70
2018-06-15T00:54:40.121Z,94.50
2018-06-15T00:59:43.382Z,94.40
2018-06-15T01:04:46.509Z,94.70
2018-06-15T01:09:49.689Z,94.40
2018-06-15T01:14:52.809Z,93.90
2018-06-15T01:19:56.145Z,93.90
2018-06-15T01:24:59.275Z,94.40
2018-06-15T01:30:02.396Z,94.70
2018-06-15T01:35:05.550Z,94.30
2018-06-15T01:40:09.792Z,94.00
2018-06-15T01:45:12.961Z,94.20
2018-06-15T01:50:16.118Z,95.00
2018-06-15T01:55:19.264Z,94.70
2018-06-15T02:00:22.442Z,94.50
2018-06-15T02:05:25.634Z,94.50
2018-06-15T02:10:28.801Z,94.20
2018-06-15T02:15:32.022Z,94.50
2018-06-15T02:20:38.891Z,94.30
2018-06-15T02:25:42.770Z,94.30
2018-06-15T02:30:46.023Z,94.60
2018-06-15T02:35:49.281Z,94.30
2018-06-15T02:40:52.501Z,94.60
2018-06-15T02:45:55.698Z,94.60
2018-06-15T02:50:58.944Z,94.40
2018-06-15T02:56:02.151Z,94.30
2018-06-15T03:01:05.425Z,94.50
2018-06-15T03:06:08.625Z,94.70
2018-06-15T03:11:11.862Z,94.90
2018-06-15T03:16:15.116Z,95.10
2018-06-15T03:21:18.293Z,95.40
2018-06-15T03:26:21.484Z,95.40
2018-06-15T03:31:24.673Z,95.30
2018-06-15T03:36:29.925Z,95.50
2018-06-15T03:41:33.164Z,95.40
2018-06-15T03:46:37.338Z,95.20
2018-06-15T03:51:40.533Z,95.50
2018-06-15T03:56:43.734Z,95.80
2018-06-15T04:01:46.925Z,95.40
2018-06-15T04:06:50.110Z,95.40
2018-06-15T04:11:53.397Z,95.20
2018-06-15T04:16:56.565Z,95.30
2018-06-15T04:21:59.816Z,95.20
2018-06-15T04:27:03.015Z,94.90
2018-06-15T04:32:06.219Z,95.20
2018-06-15T04:37:10.007Z,95.30
2018-06-15T04:42:13.218Z,95.70
2018-06-15T04:47:16.427Z,95.30
2018-06-15T04:52:19.607Z,95.60
2018-06-15T04:57:22.808Z,95.10
2018-06-15T05:02:26.018Z,94.70
2018-06-15T05:07:29.590Z,94.90
2018-06-15T05:12:32.817Z,95.00
2018-06-15T05:17:36.017Z,93.70
2018-06-15T05:22:39.198Z,93.70
2018-06-15T05:27:42.366Z,94.00
2018-06-15T05:32:45.579Z,93.80
2018-06-15T05:37:48.798Z,93.60
2018-06-15T05:42:52.154Z,93.00
2018-06-15T05:47:57.485Z,93.10
2018-06-15T05:53:00.692Z,92.60
2018-06-15T05:58:03.925Z,93.10
2018-06-15T06:03:07.134Z,91.50
2018-06-15T06:08:10.916Z,92.30
2018-06-15T06:13:14.142Z,92.30
2018-06-15T06:18:17.378Z,92.20
2018-06-15T06:23:20.665Z,91.80
2018-06-15T06:28:23.933Z,91.80
2018-06-15T06:33:27.156Z,90.60
2018-06-15T06:38:30.627Z,91.90
2018-06-15T06:43:33.945Z,91.50
2018-06-15T06:48:37.185Z,92.80
2018-06-15T06:53:40.726Z,92.20
2018-06-15T06:58:43.931Z,91.60
2018-06-15T07:03:47.173Z,91.90
2018-06-15T07:08:52.042Z,92.20
2018-06-15T07:13:56.559Z,92.10
2018-06-15T07:18:59.779Z,90.80
2018-06-15T07:24:03.026Z,88.90
2018-06-15T07:29:06.299Z,86.20
2018-06-15T07:34:09.582Z,87.80
2018-06-15T07:39:12.909Z,85.60
2018-06-15T07:44:16.280Z,86.10
2018-06-15T07:49:19.490Z,84.20
2018-06-15T07:54:22.730Z,81.00
2018-06-15T07:59:26.030Z,85.00
2018-06-15T08:04:29.274Z,83.60
2018-06-15T08:09:32.694Z,80.00
2018-06-15T08:14:35.925Z,82.90
2018-06-15T08:19:40.765Z,77.90
2018-06-15T08:24:44.022Z,81.20
2018-06-15T08:29:47.221Z,78.90
2018-06-15T08:34:50.442Z,78.40
2018-06-15T08:39:53.638Z,78.90
2018-06-15T08:44:57.104Z,74.20
2018-06-15T08:50:00.450Z,77.00
2018-06-15T08:55:03.712Z,78.10
2018-06-15T09:00:06.921Z,75.00
2018-06-15T09:05:10.096Z,76.90
2018-06-15T09:10:13.503Z,77.40
2018-06-15T09:15:16.745Z,76.20
2018-06-15T09:20:23.318Z,75.50
2018-06-15T09:25:26.575Z,75.00
2018-06-15T09:30:29.762Z,79.00
2018-06-15T09:35:32.969Z,75.80
2018-06-15T09:40:36.174Z,76.70
2018-06-15T09:45:39.362Z,78.70
2018-06-15T09:50:42.634Z,71.70
2018-06-15T09:55:45.882Z,67.60
2018-06-15T10:01:01.661Z,69.00
2018-06-15T10:06:05.058Z,66.60
2018-06-15T10:11:08.476Z,65.60
2018-06-15T10:16:22.054Z,63.10
2018-06-15T10:21:25.230Z,65.10
2018-06-15T10:26:28.380Z,62.70
2018-06-15T10:31:31.570Z,62.40
2018-06-15T10:36:34.762Z,59.20
2018-06-15T10:41:39.270Z,59.80
2018-06-15T10:46:42.413Z,58.30
2018-06-15T10:51:45.604Z,57.90
2018-06-15T10:56:48.778Z,58.70
2018-06-15T11:01:52.049Z,56.40
2018-06-15T11:06:56.313Z,56.50
2018-06-15T11:12:00.118Z,55.90
2018-06-15T11:17:03.309Z,54.80
2018-06-15T11:22:06.530Z,56.10
2018-06-15T11:27:10.589Z,56.50
2018-06-15T11:32:13.862Z,57.20
2018-06-15T11:37:19.126Z,59.50
2018-06-15T11:42:22.405Z,56.10
2018-06-15T11:47:27.418Z,55.10
2018-06-15T11:52:30.589Z,54.20
2018-06-15T11:57:34.898Z,54.50
2018-06-15T12:02:38.210Z,54.10
2018-06-15T12:07:41.515Z,56.80
2018-06-15T12:12:44.691Z,57.00
2018-06-15T12:17:49.799Z,55.60
2018-06-15T12:22:53.213Z,56.10
2018-06-15T12:27:56.485Z,55.40
2018-06-15T12:32:59.671Z,53.20
2018-06-15T12:38:02.913Z,56.10
2018-06-15T12:43:06.290Z,57.30
2018-06-15T12:48:09.529Z,56.30
2018-06-15T12:53:12.818Z,54.20
2018-06-15T12:58:15.994Z,51.70
2018-06-15T13:03:20.305Z,56.20
2018-06-15T13:08:23.622Z,54.90
2018-06-15T13:13:26.842Z,52.40
2018-06-15T13:18:30.377Z,53.60
2018-06-15T13:23:33.601Z,52.70
2018-06-15T13:28:37.580Z,51.20
2018-06-15T13:33:40.781Z,52.00
2018-06-15T13:38:44.126Z,49.70
2018-06-15T13:43:47.291Z,49.10
2018-06-15T13:48:51.036Z,47.00
2018-06-15T13:53:54.235Z,49.00
2018-06-15T13:58:57.409Z,47.90
2018-06-15T14:04:00.628Z,48.80
2018-06-15T14:09:04.930Z,48.30
2018-06-15T14:14:08.534Z,49.50
2018-06-15T14:19:12.712Z,50.50
2018-06-15T14:24:18.255Z,46.80
2018-06-15T14:29:21.418Z,50.70
2018-06-15T14:34:24.657Z,49.70
2018-06-15T14:39:27.851Z,49.60
2018-06-15T14:44:31.230Z,49.20
2018-06-15T14:49:34.482Z,47.30
2018-06-15T14:54:37.736Z,46.70
2018-06-15T14:59:40.923Z,49.00
2018-06-15T15:04:44.196Z,49.40
2018-06-15T15:09:48.242Z,48.00
2018-06-15T15:14:52.145Z,48.50
2018-06-15T15:19:55.345Z,49.50
2018-06-15T15:25:00.310Z,48.50
2018-06-15T15:30:03.595Z,48.10
2018-06-15T15:35:07.278Z,47.70
2018-06-15T15:40:10.467Z,47.90
2018-06-15T15:45:13.852Z,48.80
2018-06-15T15:50:17.086Z,48.10
2018-06-15T15:55:20.452Z,48.50
2018-06-15T16:00:25.738Z,47.60
2018-06-15T16:05:28.976Z,48.20
2018-06-15T16:10:32.290Z,47.10
2018-06-15T16:15:35.781Z,50.10
2018-06-15T16:25:42.701Z,49.40
2018-06-15T16:30:45.946Z,51.50
2018-06-15T16:35:50.241Z,51.80
2018-06-15T16:40:53.530Z,50.50
2018-06-15T16:45:56.765Z,51.30
2018-06-15T16:51:00.466Z,50.50
2018-06-15T16:56:06.274Z,50.30
2018-06-15T17:01:09.512Z,50.80
2018-06-15T17:06:12.814Z,51.00
2018-06-15T17:11:16.022Z,50.90
2018-06-15T17:16:19.314Z,51.60
2018-06-15T17:21:23.014Z,51.00
2018-06-15T17:26:29.057Z,51.40
2018-06-15T17:31:32.250Z,50.90
2018-06-15T17:36:38.773Z,50.60
2018-06-15T17:41:43.315Z,52.30
2018-06-15T17:46:47.332Z,51.10
2018-06-15T17:51:50.535Z,51.90
2018-06-15T17:56:53.771Z,53.60
2018-06-15T18:01:57.029Z,53.60
2018-06-15T18:07:01.180Z,53.00
2018-06-15T18:12:04.382Z,54.90
2018-06-15T18:17:07.577Z,54.90
2018-06-15T18:22:11.147Z,55.10
2018-06-15T18:27:14.369Z,56.20
2018-06-15T18:32:17.622Z,56.40
2018-06-15T18:37:26.094Z,56.70
2018-06-15T18:42:29.409Z,57.70
2018-06-15T18:47:32.670Z,58.30
2018-06-15T18:52:36.157Z,59.20
2018-06-15T18:57:41.470Z,59.10
2018-06-15T19:02:44.701Z,62.50
2018-06-15T19:07:47.944Z,61.40
2018-06-15T19:12:52.220Z,61.70
2018-06-15T19:17:55.514Z,60.80
2018-06-15T19:22:58.807Z,63.90
2018-06-15T19:28:02.007Z,63.90
2018-06-15T19:33:05.324Z,64.60
2018-06-15T19:38:10.583Z,63.80
2018-06-15T19:43:14.854Z,65.00
2018-06-15T19:48:18.100Z,65.00
2018-06-15T19:53:22.406Z,66.00
2018-06-15T19:58:25.610Z,66.50
2018-06-15T20:03:28.879Z,68.80
2018-06-15T20:08:32.071Z,67.50
2018-06-15T20:13:35.274Z,67.00
2018-06-15T20:18:38.499Z,68.10
2018-06-15T20:23:41.731Z,68.80
2018-06-15T20:28:45.043Z,69.10
2018-06-15T20:33:48.243Z,69.40
2018-06-15T20:38:51.494Z,71.00
2018-06-15T20:43:54.675Z,70.20
2018-06-15T20:49:01.662Z,70.20
2018-06-15T20:54:04.909Z,70.50
2018-06-15T20:59:08.090Z,71.00
2018-06-15T21:04:11.342Z,71.40
2018-06-15T21:09:15.392Z,70.80
2018-06-15T21:14:18.609Z,71.90
2018-06-15T21:19:23.797Z,71.70
2018-06-15T21:24:26.981Z,71.60
2018-06-15T21:29:30.175Z,71.60
2018-06-15T21:34:33.414Z,72.30
2018-06-15T21:39:36.586Z,72.60
2018-06-15T21:44:39.765Z,72.70
2018-06-15T21:49:42.997Z,75.20
2018-06-15T21:54:46.369Z,74.50
2018-06-15T21:59:49.557Z,73.00
2018-06-15T22:04:52.904Z,73.20
2018-06-15T22:09:56.157Z,73.80
2018-06-15T22:14:59.358Z,73.60
2018-06-15T22:20:03.430Z,73.90
2018-06-15T22:25:06.624Z,73.60
2018-06-15T22:30:09.883Z,73.60
2018-06-15T22:35:13.102Z,74.60
2018-06-15T22:40:16.301Z,73.90
2018-06-15T22:45:19.494Z,73.70
2018-06-15T22:50:22.681Z,74.00
2018-06-15T22:55:25.927Z,75.30
2018-06-15T23:00:29.161Z,75.00
2018-06-15T23:05:32.374Z,73.90
2018-06-15T23:10:35.541Z,71.90
2018-06-15T23:15:38.738Z,71.30
2018-06-15T23:20:45.611Z,70.50
2018-06-15T23:25:48.789Z,70.00
2018-06-15T23:30:52.623Z,69.90
2018-06-15T23:35:56.817Z,70.60
2018-06-15T23:40:59.986Z,72.90
2018-06-15T23:46:03.179Z,72.20
2018-06-15T23:51:06.420Z,72.30
2018-06-15T23:56:09.609Z,72.90
